Monday, October 16, 2017, 11:50 PM EDT

KLNS, Lancaster Airport

Location: Lititz, PA, United States Lat: 40.117
Local Time: 11:50 PM EDT ( 3:50 GMT) Lon: -76.3
Time Zone: US/Eastern Elev: 403 ft

Show me the last for .
Show Decoded

2017-10-16 22:53 METAR KLNS 170253Z 35008KT 10SM CLR 09/02 A3024 RMK AO2 SLP241 T00890017 53027 =
2017-10-16 21:53 METAR KLNS 170153Z 33008KT 10SM CLR 10/02 A3021 RMK AO2 SLP231 T01000017 =
2017-10-16 20:53 METAR KLNS 170053Z 31006KT 10SM CLR 10/03 A3019 RMK AO2 SLP221 T01000033 =
2017-10-16 19:53 METAR KLNS 162353Z 32004KT 10SM CLR 11/04 A3016 RMK AO2 SLP213 T01060044 10161
                 20100 53018 =
2017-10-16 18:53 METAR KLNS 162253Z 33004KT 10SM CLR 12/03 A3013 RMK AO2 SLP204 T01170033 =
2017-10-16 17:53 METAR KLNS 162153Z 01005KT 10SM CLR 14/04 A3012 RMK AO2 SLP198 T01390039 =
2017-10-16 16:53 METAR KLNS 162053Z 34009KT 10SM FEW049 16/03 A3011 RMK AO2 SLP194 T01560033
                 53007 =
2017-10-16 15:53 METAR KLNS 161953Z 33012KT 10SM CLR 16/03 A3010 RMK AO2 SLP190 T01560028 =
2017-10-16 14:53 METAR KLNS 161853Z 34012G21KT 10SM FEW049 16/04 A3009 RMK AO2 SLP187 T01560044 =
2017-10-16 13:53 METAR KLNS 161753Z 32011KT 10SM SCT042 13/05 A3009 RMK AO2 SLP187 T01330050
                 10150 20122 50000 =
2017-10-16 12:53 METAR KLNS 161653Z 34010G18KT 10SM BKN035 13/06 A3010 RMK AO2 SLP190 T01280061 =
2017-10-16 11:53 METAR KLNS 161553Z 33010G17KT 10SM OVC039 13/07 A3008 RMK AO2 SLP184 T01280067 =
2017-10-16 10:53 METAR KLNS 161453Z 35011KT 10SM OVC042 13/06 A3008 RMK AO2 SLP186 T01330061
                 51026 =
2017-10-16 09:53 METAR KLNS 161353Z 34015G20KT 10SM SCT042 14/07 A3006 RMK AO2 SLP177 T01390067 =
2017-10-16 08:53 METAR KLNS 161253Z 36011G20KT 10SM FEW034 14/08 A3003 RMK AO2 SLP169 T01390083 =
2017-10-16 07:53 METAR KLNS 161153Z 32014G20KT 10SM FEW033 OVC041 15/09 A3001 RMK AO2 SLP159
                 60002 70010 T01500089 10172 20150 51024 =
2017-10-16 06:53 METAR KLNS 161053Z 32007KT 10SM SCT033 SCT120 15/12 A2998 RMK AO2 SLP149
                 T01500117 =
2017-10-16 05:53 METAR KLNS 160953Z 29010KT 10SM CLR 16/12 A2997 RMK AO2 SLP148 T01560117 =
2017-10-16 04:53 METAR KLNS 160853Z AUTO 29009KT 10SM CLR 16/13 A2993 RMK AO2 SLP134 60002
                 T01610128 53006 =
2017-10-16 03:53 METAR KLNS 160753Z AUTO 29009KT 10SM FEW080 OVC120 16/14 A2992 RMK AO2 RAE0659
                 SLP128 P0000 T01610139 =
2017-10-16 02:53 METAR KLNS 160653Z AUTO 27005KT 10SM -RA BKN080 OVC100 17/16 A2992 RMK AO2
                 SLP128 P0002 T01670156 =
2017-10-16 01:53 METAR KLNS 160553Z AUTO 31008KT 9SM -RA SCT044 BKN055 OVC075 17/15 A2992 RMK AO2
                 RAB34 SLP128 P0000 60008 T01720150 10217 20172 53016 =
2017-10-16 00:53 METAR KLNS 160453Z AUTO 29011KT 10SM SCT026 OVC033 18/16 A2990 RMK AO2 RAE49
                 SLP124 P0004 T01780161 402280167 =
2017-10-16 00:23 METAR KLNS 160423Z AUTO 33014G21KT 3SM RA BR FEW014 BKN020 OVC055 18/17 A2989
                 RMK AO2 P0003 T01830172 =
2017-10-15 23:53 METAR KLNS 160353Z AUTO 30010KT 9SM -RA FEW026 BKN041 OVC048 19/18 A2987 RMK AO2
                 RAB14 SLP112 P0004 T01940183 =

Support USWX by starting your Amazon purchase here.